Time;durP1;ratioP1;P1;durP2;ratioP2;P2;SDS_P1;SDS_P2;PMS_P1;PMS_P2;Temp;Humidity;BMP_temperature;BMP_pressure;BME280_temperature;BME280_humidity;BME280_pressure;Samples;Min_cycle;Max_cycle;Signal;HPM_P1;HPM_P2
2020/12/21 00:00:18;;;;;;;15.10;4.22;;;;;;;5.27;77.14;100273.34;5068824;28;20144;-55
2020/12/21 00:03:05;;;;;;;18.85;6.85;;;;;;;5.28;77.10;100269.50;5085513;28;20052;-55
2020/12/21 00:05:52;;;;;;;9.10;3.78;;;;;;;5.29;77.05;100264.81;5064241;28;20045;-59
2020/12/21 00:08:38;;;;;;;8.45;2.83;;;;;;;5.30;76.94;100259.00;5061235;28;20517;-58
2020/12/21 00:11:39;;;;;;;10.52;3.00;;;;;;;5.30;77.19;100261.75;5074145;28;20045;-56
2020/12/21 00:14:26;;;;;;;14.20;3.53;;;;;;;5.35;77.16;100253.34;5075701;28;20484;-58
2020/12/21 00:17:12;;;;;;;10.25;2.20;;;;;;;5.39;77.08;100242.53;5073855;28;20048;-56
2020/12/21 00:19:59;;;;;;;8.75;2.65;;;;;;;5.39;77.02;100245.28;5066682;28;20049;-56
2020/12/21 00:22:45;;;;;;;10.52;2.38;;;;;;;5.40;77.08;100244.94;5055121;28;20545;-56
2020/12/21 00:25:32;;;;;;;8.13;2.53;;;;;;;5.40;76.99;100242.19;5053373;28;20521;-57
2020/12/21 00:28:18;;;;;;;15.90;3.50;;;;;;;5.40;77.19;100239.47;5055134;28;20083;-57
2020/12/21 00:31:05;;;;;;;11.98;2.95;;;;;;;5.38;77.27;100228.00;5070641;28;20080;-58
2020/12/21 00:33:55;;;;;;;13.43;3.83;;;;;;;5.38;77.08;100229.94;5082146;28;20533;-57
2020/12/21 00:36:47;;;;;;;10.55;3.30;;;;;;;5.36;77.24;100232.19;5083822;28;20382;-60
2020/12/21 00:39:34;;;;;;;10.57;2.80;;;;;;;5.37;77.04;100228.34;5073685;28;20168;-57
2020/12/21 00:42:20;;;;;;;9.52;3.20;;;;;;;5.34;77.21;100218.81;5080660;28;20056;-56
2020/12/21 00:45:07;;;;;;;8.90;3.03;;;;;;;5.32;76.93;100225.75;5093966;28;20413;-56
2020/12/21 00:47:53;;;;;;;16.13;3.85;;;;;;;5.28;77.14;100219.28;5061591;28;20045;-55
2020/12/21 00:50:40;;;;;;;10.40;3.13;;;;;;;5.26;77.24;100211.38;5075831;28;20127;-53
2020/12/21 00:53:26;;;;;;;10.43;3.92;;;;;;;5.24;76.85;100199.13;5089794;28;20371;-54
2020/12/21 00:56:15;;;;;;;9.13;2.35;;;;;;;5.21;77.50;100197.81;5072748;28;20116;-52
2020/12/21 00:59:02;;;;;;;13.43;3.08;;;;;;;5.21;77.30;100197.81;5064041;28;20046;-54
2020/12/21 01:01:49;;;;;;;8.02;3.00;;;;;;;5.20;77.23;100185.22;5062620;28;20075;-54
2020/12/21 01:04:35;;;;;;;17.33;5.78;;;;;;;5.18;77.15;100179.25;5077741;28;20047;-51
2020/12/21 01:07:22;;;;;;;20.23;5.65;;;;;;;5.17;77.40;100174.88;5073804;28;20056;-52
2020/12/21 01:10:08;;;;;;;16.60;6.43;;;;;;;5.11;77.45;100165.19;5082300;28;20045;-54
2020/12/21 01:12:55;;;;;;;21.67;6.75;;;;;;;5.08;77.41;100160.38;5061010;28;20048;-52
2020/12/21 01:15:42;;;;;;;15.13;6.22;;;;;;;5.08;77.50;100154.91;5073065;28;20044;-52
2020/12/21 01:18:29;;;;;;;15.55;5.78;;;;;;;5.04;77.57;100145.69;5052661;28;20510;-52
2020/12/21 01:21:26;;;;;;;30.48;7.93;;;;;;;5.02;77.43;100138.91;5068992;28;20044;-52
2020/12/21 01:24:13;;;;;;;19.98;5.05;;;;;;;4.99;77.53;100143.09;5073834;28;20498;-52
2020/12/21 01:27:01;;;;;;;13.43;4.45;;;;;;;4.96;77.64;100142.94;5078969;28;20056;-52
2020/12/21 01:29:47;;;;;;;14.23;3.33;;;;;;;4.91;77.95;100139.22;5060027;28;20083;-57
2020/12/21 01:32:34;;;;;;;15.98;5.18;;;;;;;4.91;78.00;100138.41;5083657;28;20044;-57
2020/12/21 01:35:21;;;;;;;13.80;4.47;;;;;;;4.90;77.93;100132.13;5091841;28;20066;-57
2020/12/21 01:38:07;;;;;;;14.35;5.38;;;;;;;4.92;78.15;100129.06;5089011;28;20052;-57
2020/12/21 01:40:54;;;;;;;18.42;7.05;;;;;;;4.92;78.04;100126.34;5067347;28;20058;-57
2020/12/21 01:43:41;;;;;;;22.95;6.82;;;;;;;4.93;78.04;100127.94;5074132;28;20491;-54
2020/12/21 01:46:29;;;;;;;24.98;6.95;;;;;;;4.93;78.12;100119.69;5076654;28;20125;-56
2020/12/21 01:49:16;;;;;;;21.63;6.03;;;;;;;4.93;78.29;100122.44;5056752;28;20052;-57
2020/12/21 01:52:05;;;;;;;19.08;5.82;;;;;;;4.93;78.02;100114.22;5089459;28;20162;-57
2020/12/21 01:54:51;;;;;;;18.73;6.28;;;;;;;4.95;78.07;100120.16;5053554;28;20132;-57
2020/12/21 01:57:39;;;;;;;12.55;4.35;;;;;;;4.94;78.43;100110.34;5053696;28;20242;-55
2020/12/21 02:00:28;;;;;;;16.58;5.60;;;;;;;4.96;78.19;100110.00;5054981;28;20125;-57
2020/12/21 02:03:14;;;;;;;18.98;5.82;;;;;;;4.97;78.57;100104.22;5081147;28;20123;-56
2020/12/21 02:06:01;;;;;;;18.85;7.22;;;;;;;4.97;78.50;100109.72;5088703;28;20126;-58
2020/12/21 02:08:48;;;;;;;14.00;4.18;;;;;;;5.00;78.54;100102.78;5076914;28;20497;-55
2020/12/21 02:11:39;;;;;;;11.25;4.32;;;;;;;5.02;78.66;100098.56;5083471;28;20132;-56
2020/12/21 02:14:26;;;;;;;15.60;5.05;;;;;;;5.02;78.91;100095.81;5080884;28;20040;-58
2020/12/21 02:17:12;;;;;;;17.48;6.18;;;;;;;5.06;78.96;100091.28;5092686;28;20127;-56
2020/12/21 02:19:59;;;;;;;15.30;5.93;;;;;;;5.10;78.89;100086.78;5084973;28;20482;-57
2020/12/21 02:22:46;;;;;;;15.40;5.75;;;;;;;5.12;79.35;100081.75;5052520;28;20118;-53
2020/12/21 02:25:32;;;;;;;19.25;6.80;;;;;;;5.16;79.11;100066.28;5075228;28;20161;-58
2020/12/21 02:28:19;;;;;;;10.38;4.20;;;;;;;5.20;79.50;100069.16;5093139;28;20044;-57
2020/12/21 02:31:05;;;;;;;13.50;4.57;;;;;;;5.23;79.30;100061.09;5080972;28;20044;-57
2020/12/21 02:33:53;;;;;;;15.80;4.07;;;;;;;5.29;79.30;100056.25;5092924;28;20043;-57
2020/12/21 02:36:39;;;;;;;13.32;4.07;;;;;;;5.32;79.46;100050.09;5067801;28;20527;-57
2020/12/21 02:39:26;;;;;;;18.45;5.05;;;;;;;5.36;79.64;100051.03;5061727;28;20123;-57
2020/12/21 02:42:12;;;;;;;13.13;3.55;;;;;;;5.40;79.75;100044.56;5081608;28;20050;-57
2020/12/21 02:45:04;;;;;;;16.45;3.58;;;;;;;5.44;79.61;100042.78;5079231;28;20489;-56
2020/12/21 02:47:50;;;;;;;15.68;3.03;;;;;;;5.48;79.64;100040.97;5074999;28;20146;-57
2020/12/21 02:50:37;;;;;;;15.73;3.80;;;;;;;5.52;79.93;100047.44;5089353;28;20123;-57
2020/12/21 02:53:24;;;;;;;15.02;3.97;;;;;;;5.56;79.96;100033.84;5073156;28;20048;-55
2020/12/21 02:56:11;;;;;;;15.63;3.28;;;;;;;5.59;79.77;100024.19;5052567;28;20052;-57
2020/12/21 02:58:58;;;;;;;14.32;3.10;;;;;;;5.61;79.98;100021.91;5080800;28;20174;-57
2020/12/21 03:01:44;;;;;;;6.93;2.78;;;;;;;5.63;80.22;100022.38;5086995;28;20383;-56
2020/12/21 03:04:31;;;;;;;8.95;2.90;;;;;;;5.64;80.35;100019.28;5073182;28;20089;-57
2020/12/21 03:07:17;;;;;;;10.77;2.47;;;;;;;5.67;80.40;100018.63;5088452;28;20133;-56
2020/12/21 03:10:04;;;;;;;10.38;3.00;;;;;;;5.67;80.47;100013.13;5074912;28;20395;-57
2020/12/21 03:12:51;;;;;;;7.88;2.35;;;;;;;5.68;80.28;100006.50;5083593;28;20075;-57
2020/12/21 03:15:38;;;;;;;10.93;2.08;;;;;;;5.71;80.27;100007.78;5083744;28;20135;-56
2020/12/21 03:18:25;;;;;;;10.15;2.45;;;;;;;5.71;81.03;100005.84;5089477;28;20496;-56
2020/12/21 03:21:11;;;;;;;23.88;3.65;;;;;;;5.74;80.61;99993.41;5072531;28;20127;-57
2020/12/21 03:23:59;;;;;;;20.02;3.83;;;;;;;5.75;80.75;99976.59;5052290;28;20053;-58
2020/12/21 03:26:45;;;;;;;18.50;3.22;;;;;;;5.80;80.64;99961.88;5051897;28;20138;-54
2020/12/21 03:29:32;;;;;;;10.20;2.40;;;;;;;5.83;81.00;99958.44;5064329;28;20170;-58
2020/12/21 03:32:19;;;;;;;10.18;2.95;;;;;;;5.85;81.09;99953.47;5063249;28;20136;-56
2020/12/21 03:35:06;;;;;;;12.55;2.67;;;;;;;5.89;81.11;99948.91;5050982;28;20167;-52
2020/12/21 03:37:53;;;;;;;13.27;2.78;;;;;;;5.91;81.15;99949.38;5068562;28;20165;-57
2020/12/21 03:40:40;;;;;;;16.27;2.50;;;;;;;5.93;81.08;99944.38;5058930;28;20391;-57
2020/12/21 03:43:26;;;;;;;12.15;3.03;;;;;;;5.95;80.98;99925.59;5050806;28;20409;-54
2020/12/21 03:46:13;;;;;;;22.67;2.90;;;;;;;5.96;81.05;99921.69;5074667;28;20045;-55
2020/12/21 03:49:01;;;;;;;20.85;3.42;;;;;;;5.97;81.25;99912.31;5092565;28;20052;-56
2020/12/21 03:51:49;;;;;;;12.20;3.35;;;;;;;5.98;81.47;99900.22;5079538;28;20086;-57
2020/12/21 03:54:35;;;;;;;16.48;4.15;;;;;;;5.99;81.41;99888.88;5074429;28;20084;-55
2020/12/21 03:57:22;;;;;;;17.40;3.13;;;;;;;5.99;81.56;99877.88;5078469;28;20186;-56
2020/12/21 04:00:08;;;;;;;23.60;5.28;;;;;;;6.01;81.84;99870.09;5075524;28;20518;-55
2020/12/21 04:02:55;;;;;;;11.80;2.63;;;;;;;6.03;81.93;99865.09;5066380;28;20478;-57
2020/12/21 04:05:42;;;;;;;25.55;4.05;;;;;;;6.09;81.92;99863.72;5095349;28;20040;-55
2020/12/21 04:08:28;;;;;;;19.27;3.25;;;;;;;6.10;82.38;99850.81;5088989;28;20045;-55
2020/12/21 04:11:15;;;;;;;13.80;2.60;;;;;;;6.13;82.61;99859.19;5080849;28;20043;-57
2020/12/21 04:14:02;;;;;;;18.30;3.25;;;;;;;6.18;82.89;99847.16;5087652;28;20041;-57
2020/12/21 04:16:49;;;;;;;16.08;3.78;;;;;;;6.24;82.66;99843.06;5074507;28;20127;-56
2020/12/21 04:19:35;;;;;;;22.25;4.68;;;;;;;6.28;82.92;99841.25;5073043;28;20395;-57
2020/12/21 04:22:22;;;;;;;14.40;2.58;;;;;;;6.32;82.89;99835.88;5085486;28;20040;-58
2020/12/21 04:25:08;;;;;;;14.45;2.28;;;;;;;6.34;82.86;99830.84;5086838;28;20440;-54
2020/12/21 04:27:55;;;;;;;10.48;3.80;;;;;;;6.34;82.90;99823.41;5074033;28;20068;-56
2020/12/21 04:30:42;;;;;;;16.17;3.40;;;;;;;6.34;83.01;99806.91;5075615;28;20033;-56
2020/12/21 04:33:29;;;;;;;14.85;3.50;;;;;;;6.35;83.10;99802.22;5094509;28;20044;-54
2020/12/21 04:36:24;;;;;;;23.40;5.57;;;;;;;6.35;83.20;99794.78;5066181;28;20045;-56
2020/12/21 04:39:10;;;;;;;18.38;4.90;;;;;;;6.37;83.16;99795.25;5057216;28;20574;-58
2020/12/21 04:41:58;;;;;;;12.45;2.38;;;;;;;6.37;83.25;99777.94;5079564;28;20130;-54
2020/12/21 04:44:45;;;;;;;18.15;3.08;;;;;;;6.38;83.73;99763.06;5088872;28;20033;-54
2020/12/21 04:47:32;;;;;;;20.77;3.92;;;;;;;6.40;83.64;99761.56;5087237;28;20036;-55
2020/12/21 04:50:19;;;;;;;12.30;2.47;;;;;;;6.44;83.74;99756.19;5059878;28;20409;-58
2020/12/21 04:53:07;;;;;;;12.77;2.78;;;;;;;6.47;83.93;99744.50;5063821;28;20049;-57
2020/12/21 04:55:55;;;;;;;14.63;2.50;;;;;;;6.49;83.82;99737.50;5062618;28;20127;-58
2020/12/21 04:58:45;;;;;;;14.40;2.22;;;;;;;6.51;84.42;99740.72;5042548;28;20135;-57
2020/12/21 05:01:32;;;;;;;13.35;2.95;;;;;;;6.57;84.65;99739.34;5063180;28;20131;-57
2020/12/21 05:04:18;;;;;;;25.05;3.63;;;;;;;6.59;84.55;99742.56;5035987;28;20580;-56
2020/12/21 05:07:05;;;;;;;21.58;2.92;;;;;;;6.60;85.03;99733.16;5036508;28;20513;-56
2020/12/21 05:09:51;;;;;;;17.25;2.45;;;;;;;6.62;85.07;99741.88;5053861;28;20063;-57
2020/12/21 05:12:38;;;;;;;18.92;4.40;;;;;;;6.63;85.34;99727.00;5052799;28;20124;-57
2020/12/21 05:15:25;;;;;;;20.10;2.85;;;;;;;6.66;85.38;99720.81;5040834;28;20196;-55
2020/12/21 05:18:12;;;;;;;24.42;3.55;;;;;;;6.69;85.79;99720.13;5038367;28;20187;-58
2020/12/21 05:21:00;;;;;;;15.00;3.17;;;;;;;6.71;85.66;99712.31;5052461;28;20079;-57
2020/12/21 05:23:55;;;;;;;14.57;2.30;;;;;;;6.73;86.39;99714.72;5070544;28;20484;-56
2020/12/21 05:26:42;;;;;;;14.25;2.72;;;;;;;6.75;85.94;99707.72;5060304;28;20123;-56
2020/12/21 05:29:29;;;;;;;10.23;2.33;;;;;;;6.75;85.88;99704.97;5049144;28;20182;-56
2020/12/21 05:32:19;;;;;;;17.45;4.55;;;;;;;6.77;85.80;99699.13;5054205;28;20509;-56
2020/12/21 05:35:07;;;;;;;19.60;2.92;;;;;;;6.78;85.97;99700.72;5048412;28;20045;-53
2020/12/21 05:37:54;;;;;;;22.33;3.17;;;;;;;6.80;86.12;99697.66;5053548;28;20179;-56
2020/12/21 05:40:41;;;;;;;22.48;3.92;;;;;;;6.81;86.21;99693.72;5066560;28;20124;-55
2020/12/21 05:43:29;;;;;;;13.57;2.95;;;;;;;6.83;86.14;99680.44;5054329;28;20660;-56
2020/12/21 05:46:23;;;;;;;22.65;3.45;;;;;;;6.85;86.77;99678.97;5052856;28;20414;-55
2020/12/21 05:49:12;;;;;;;26.50;4.22;;;;;;;6.88;86.42;99677.47;5056767;28;20055;-56
2020/12/21 05:52:12;;;;;;;21.38;3.65;;;;;;;6.90;86.81;99664.16;5081697;28;20424;-58
2020/12/21 05:55:08;;;;;;;17.40;3.42;;;;;;;6.95;87.08;99663.91;5081630;28;20044;-57
2020/12/21 05:57:57;;;;;;;25.00;5.72;;;;;;;6.98;87.54;99660.47;5087538;28;20082;-57
2020/12/21 06:00:45;;;;;;;25.88;3.88;;;;;;;7.07;87.79;99661.16;5092575;28;20162;-59
2020/12/21 06:03:45;;;;;;;15.73;3.35;;;;;;;7.15;88.18;99654.69;5055912;28;20053;-54
2020/12/21 06:06:33;;;;;;;18.38;3.58;;;;;;;7.20;87.74;99638.72;5082606;28;20076;-55
2020/12/21 06:09:28;;;;;;;19.77;3.83;;;;;;;7.24;88.64;99647.91;5072112;28;20080;-56
2020/12/21 06:12:18;;;;;;;21.45;3.00;;;;;;;7.30;88.42;99646.50;5073718;28;20036;-56
2020/12/21 06:15:09;;;;;;;12.55;2.67;;;;;;;7.33;88.66;99639.50;5053616;28;20182;-57
2020/12/21 06:17:55;;;;;;;16.15;2.67;;;;;;;7.39;88.19;99640.81;5055451;28;20494;-57
2020/12/21 06:20:43;;;;;;;16.08;2.88;;;;;;;7.40;87.77;99636.13;5051724;28;20122;-57
2020/12/21 06:23:37;;;;;;;13.35;2.58;;;;;;;7.38;88.49;99625.47;5068067;28;20524;-53
2020/12/21 06:26:37;;;;;;;12.45;2.58;;;;;;;7.41;88.60;99623.97;5081398;28;20056;-58
2020/12/21 06:29:25;;;;;;;18.40;2.45;;;;;;;7.44;88.31;99613.03;5073513;28;20045;-57
2020/12/21 06:32:11;;;;;;;16.98;4.03;;;;;;;7.45;88.45;99619.34;5060253;28;20041;-58
2020/12/21 06:34:59;;;;;;;19.70;3.65;;;;;;;7.46;88.14;99596.19;5066220;28;20481;-57
2020/12/21 06:38:00;;;;;;;28.55;5.15;;;;;;;7.48;88.24;99594.66;5041610;28;20094;-54
2020/12/21 06:40:47;;;;;;;27.08;4.90;;;;;;;7.49;87.95;99593.53;5071143;28;20135;-54
2020/12/21 06:43:34;;;;;;;20.10;4.20;;;;;;;7.50;88.33;99597.88;5071654;28;20068;-56
2020/12/21 06:46:21;;;;;;;19.23;4.53;;;;;;;7.51;88.34;99593.97;5078789;28;20045;-55
2020/12/21 06:49:09;;;;;;;23.58;4.50;;;;;;;7.51;88.18;99596.72;5079245;28;20136;-57
2020/12/21 06:51:56;;;;;;;19.90;4.68;;;;;;;7.51;88.29;99582.94;5085925;28;20044;-55
2020/12/21 06:54:44;;;;;;;19.75;4.15;;;;;;;7.54;88.53;99584.19;5055746;28;20135;-57
2020/12/21 06:57:31;;;;;;;24.35;4.53;;;;;;;7.55;88.43;99575.56;5076439;28;20502;-55
2020/12/21 07:00:21;;;;;;;10.75;4.68;;;;;;;7.56;88.81;99574.44;5076406;28;20126;-56
2020/12/21 07:03:08;;;;;;;15.10;2.95;;;;;;;7.58;88.57;99574.88;5088842;28;20042;-52
2020/12/21 07:06:01;;;;;;;19.45;2.97;;;;;;;7.56;88.73;99566.16;5080425;28;20494;-56
2020/12/21 07:08:49;;;;;;;10.05;3.08;;;;;;;7.58;88.63;99563.84;5077816;28;20047;-55
2020/12/21 07:11:40;;;;;;;14.35;2.85;;;;;;;7.57;89.04;99556.72;5085220;28;20560;-52
2020/12/21 07:14:29;;;;;;;16.00;2.38;;;;;;;7.58;88.52;99550.09;5037897;28;20053;-55
2020/12/21 07:17:16;;;;;;;10.35;2.88;;;;;;;7.58;88.39;99552.84;5086509;28;20083;-55
2020/12/21 07:20:03;;;;;;;11.93;3.30;;;;;;;7.59;88.23;99550.88;5068117;28;20084;-56
2020/12/21 07:22:50;;;;;;;6.13;2.03;;;;;;;7.59;88.27;99557.19;5072763;28;20032;-55
2020/12/21 07:25:47;;;;;;;4.88;1.38;;;;;;;7.59;88.64;99543.44;5091787;28;20051;-53
2020/12/21 07:28:34;;;;;;;14.00;2.20;;;;;;;7.61;88.58;99524.59;5049838;28;20189;-57
2020/12/21 07:31:21;;;;;;;13.25;2.47;;;;;;;7.62;88.43;99526.19;5082088;28;20406;-56
2020/12/21 07:34:08;;;;;;;10.68;2.70;;;;;;;7.63;88.36;99514.00;5080455;28;20434;-57
2020/12/21 07:36:56;;;;;;;9.82;2.42;;;;;;;7.63;88.61;99511.25;5089794;28;20047;-57
2020/12/21 07:39:43;;;;;;;13.55;2.45;;;;;;;7.63;88.41;99494.72;5080195;28;20060;-53
2020/12/21 07:42:31;;;;;;;12.73;2.30;;;;;;;7.63;88.43;99493.91;5091849;28;20044;-56
2020/12/21 07:45:20;;;;;;;9.30;2.10;;;;;;;7.63;88.28;99483.72;5068449;28;20044;-56
2020/12/21 07:48:08;;;;;;;3.67;1.45;;;;;;;7.62;88.47;99479.38;5074498;28;20044;-56
2020/12/21 07:50:55;;;;;;;8.23;1.67;;;;;;;7.62;88.57;99471.13;5061663;28;20032;-56
2020/12/21 07:53:41;;;;;;;16.70;2.95;;;;;;;7.64;88.37;99479.81;5072081;28;20040;-56
2020/12/21 07:56:28;;;;;;;11.27;2.35;;;;;;;7.64;88.11;99473.50;5063800;28;20045;-55
2020/12/21 07:59:16;;;;;;;10.52;2.63;;;;;;;7.63;88.29;99472.69;5075301;28;20413;-53
2020/12/21 08:02:07;;;;;;;13.02;3.05;;;;;;;7.64;88.38;99466.03;5072874;28;20044;-55
2020/12/21 08:04:54;;;;;;;11.13;2.25;;;;;;;7.64;88.38;99463.28;5061051;28;20181;-53
2020/12/21 08:07:41;;;;;;;10.23;1.73;;;;;;;7.62;88.58;99465.59;5064776;28;20387;-53
2020/12/21 08:10:27;;;;;;;8.60;1.50;;;;;;;7.65;88.47;99458.59;5061959;28;20124;-55
2020/12/21 08:13:23;;;;;;;16.52;2.22;;;;;;;7.64;88.77;99463.28;5062981;28;20122;-56
2020/12/21 08:16:09;;;;;;;13.05;2.28;;;;;;;7.66;88.50;99447.19;5070886;28;20070;-59
2020/12/21 08:18:56;;;;;;;15.52;4.57;;;;;;;7.66;88.38;99454.66;5071324;28;20049;-54
2020/12/21 08:21:43;;;;;;;12.45;1.85;;;;;;;7.64;88.64;99462.47;5071090;28;20122;-53
2020/12/21 08:24:29;;;;;;;12.10;2.53;;;;;;;7.63;88.55;99467.19;5070536;28;20080;-57
2020/12/21 08:27:19;;;;;;;10.07;2.33;;;;;;;7.59;88.58;99471.81;5070907;28;20170;-55
2020/12/21 08:30:11;;;;;;;11.95;1.90;;;;;;;7.57;88.95;99467.81;5072322;28;20044;-58
2020/12/21 08:32:59;;;;;;;12.40;2.13;;;;;;;7.55;88.89;99481.94;5075112;28;20044;-56
2020/12/21 08:35:46;;;;;;;16.13;3.40;;;;;;;7.53;88.96;99478.75;5058539;28;20399;-57
2020/12/21 08:38:36;;;;;;;14.68;2.08;;;;;;;7.53;88.91;99491.72;5040440;28;20155;-53
2020/12/21 08:41:53;;;;;;;11.25;2.55;;;;;;;7.50;88.92;99484.97;5073753;28;20044;-56
2020/12/21 08:44:40;;;;;;;11.27;2.65;;;;;;;7.51;89.04;99485.75;5058740;28;20040;-58
2020/12/21 08:47:27;;;;;;;20.92;3.58;;;;;;;7.51;89.30;99486.56;5060893;28;20125;-55
2020/12/21 08:50:13;;;;;;;15.80;2.70;;;;;;;7.52;89.14;99471.63;5073674;28;20405;-54
2020/12/21 08:53:01;;;;;;;19.77;4.10;;;;;;;7.52;89.13;99474.38;5052985;28;20064;-58
2020/12/21 08:55:48;;;;;;;42.70;6.82;;;;;;;7.53;89.27;99473.22;5068621;28;20060;-56
2020/12/21 08:58:35;;;;;;;10.13;3.78;;;;;;;7.54;89.75;99466.59;5066809;28;20482;-55
2020/12/21 09:01:22;;;;;;;20.38;5.18;;;;;;;7.54;89.67;99458.31;5066189;28;20045;-57
2020/12/21 09:04:09;;;;;;;15.00;4.22;;;;;;;7.55;89.56;99454.41;5078057;28;20149;-54
2020/12/21 09:06:55;;;;;;;7.47;3.00;;;;;;;7.56;89.92;99456.00;5069930;28;20041;-57
2020/12/21 09:09:42;;;;;;;9.10;2.72;;;;;;;7.59;90.02;99458.06;5066154;28;20122;-55
2020/12/21 09:12:29;;;;;;;9.75;2.65;;;;;;;7.61;89.75;99438.41;5083098;28;20048;-57
2020/12/21 09:15:15;;;;;;;15.13;3.65;;;;;;;7.62;89.75;99454.59;5085127;28;20122;-54
2020/12/21 09:18:02;;;;;;;9.57;2.35;;;;;;;7.64;89.88;99446.75;5091197;28;20044;-51
2020/12/21 09:20:48;;;;;;;10.63;2.78;;;;;;;7.66;89.95;99451.91;5058348;28;20135;-55
2020/12/21 09:23:35;;;;;;;10.60;3.45;;;;;;;7.67;89.94;99451.56;5072145;28;20063;-53
2020/12/21 09:26:23;;;;;;;8.48;2.60;;;;;;;7.67;90.13;99446.06;5070567;28;20144;-54
2020/12/21 09:29:09;;;;;;;5.30;2.60;;;;;;;7.70;90.00;99439.81;5070981;28;20133;-56
2020/12/21 09:31:56;;;;;;;6.97;1.70;;;;;;;7.72;90.17;99436.72;5084950;28;20040;-54
2020/12/21 09:34:43;;;;;;;6.93;2.25;;;;;;;7.73;90.12;99452.09;5090677;28;20171;-56
2020/12/21 09:37:29;;;;;;;2.17;1.30;;;;;;;7.73;90.37;99452.84;5065506;28;20095;-56
2020/12/21 09:40:35;;;;;;;8.10;1.85;;;;;;;7.75;90.29;99456.09;5060886;28;20041;-55
2020/12/21 09:43:21;;;;;;;8.32;1.38;;;;;;;7.75;90.48;99442.31;5070883;28;20037;-57
2020/12/21 09:46:08;;;;;;;7.10;1.42;;;;;;;7.75;90.34;99439.56;5069218;28;20197;-58
2020/12/21 09:48:56;;;;;;;7.65;1.95;;;;;;;7.76;90.45;99432.88;5059806;28;20791;-54
2020/12/21 09:51:42;;;;;;;9.27;2.60;;;;;;;7.77;90.31;99434.47;5068535;28;20105;-56
2020/12/21 09:54:30;;;;;;;9.82;2.40;;;;;;;7.78;90.55;99430.53;5071145;28;20048;-54
2020/12/21 09:57:18;;;;;;;5.13;1.55;;;;;;;7.78;90.43;99419.53;5071274;28;20486;-58
2020/12/21 10:00:05;;;;;;;8.73;2.67;;;;;;;7.81;90.47;99418.81;5073551;28;20390;-59
2020/12/21 10:02:51;;;;;;;13.55;3.20;;;;;;;7.83;90.43;99410.22;5091778;28;20087;-56
2020/12/21 10:05:38;;;;;;;10.23;2.85;;;;;;;7.85;90.51;99402.38;5071453;28;20044;-51
2020/12/21 10:08:25;;;;;;;10.95;2.92;;;;;;;7.86;90.48;99404.75;5080012;28;20432;-58
2020/12/21 10:11:11;;;;;;;11.98;2.88;;;;;;;7.88;90.40;99409.91;5081426;28;20048;-59
2020/12/21 10:13:58;;;;;;;6.85;2.78;;;;;;;7.90;90.38;99411.16;5088060;28;20257;-57
2020/12/21 10:16:45;;;;;;;4.78;2.22;;;;;;;7.90;90.38;99410.34;5060959;28;20076;-56
2020/12/21 10:19:31;;;;;;;13.40;3.83;;;;;;;7.91;90.42;99410.00;5037504;28;20037;-55
2020/12/21 10:22:18;;;;;;;8.00;3.08;;;;;;;7.93;90.46;99404.13;5051419;28;20084;-55
2020/12/21 10:25:04;;;;;;;9.93;4.90;;;;;;;7.92;90.37;99408.84;5066646;28;20044;-55
2020/12/21 10:27:51;;;;;;;13.23;2.85;;;;;;;7.94;90.52;99406.50;5069747;28;20458;-57
2020/12/21 10:30:38;;;;;;;13.70;4.00;;;;;;;7.96;90.73;99403.41;5056119;28;20490;-58
2020/12/21 10:33:25;;;;;;;9.35;4.13;;;;;;;7.97;90.64;99403.03;5066835;28;20163;-54
2020/12/21 10:36:16;;;;;;;10.65;3.55;;;;;;;7.99;90.62;99400.72;5061304;28;20124;-55
2020/12/21 10:39:02;;;;;;;10.88;3.33;;;;;;;8.04;90.71;99390.59;5055017;28;20044;-57
2020/12/21 10:41:49;;;;;;;15.60;4.63;;;;;;;8.06;90.71;99402.03;5081575;28;20137;-55
2020/12/21 10:44:36;;;;;;;8.90;3.72;;;;;;;8.08;90.50;99392.25;5071895;28;20089;-57
2020/12/21 10:47:25;;;;;;;18.20;3.95;;;;;;;8.10;90.68;99389.16;5070996;28;20078;-57
2020/12/21 10:50:12;;;;;;;8.23;3.20;;;;;;;8.11;90.68;99376.94;5069871;28;20167;-57
2020/12/21 10:52:58;;;;;;;8.45;3.13;;;;;;;8.13;90.66;99377.41;5070614;28;20723;-54
2020/12/21 10:55:45;;;;;;;8.35;3.53;;;;;;;8.16;90.58;99368.38;5070983;28;20056;-56
2020/12/21 10:58:31;;;;;;;11.38;3.53;;;;;;;8.17;90.63;99358.97;5071643;28;20086;-56
2020/12/21 11:01:19;;;;;;;11.05;4.38;;;;;;;8.19;90.97;99356.63;5087735;28;20108;-57
2020/12/21 11:04:05;;;;;;;8.77;3.25;;;;;;;8.20;90.69;99364.56;5066522;28;20178;-54
2020/12/21 11:06:52;;;;;;;8.95;4.45;;;;;;;8.21;90.71;99351.53;5080962;28;20073;-56
2020/12/21 11:09:39;;;;;;;10.82;3.80;;;;;;;8.21;90.88;99362.56;5074339;28;20081;-54
2020/12/21 11:12:25;;;;;;;13.32;4.25;;;;;;;8.21;90.90;99351.53;5072380;28;20490;-54
2020/12/21 11:15:12;;;;;;;15.00;5.45;;;;;;;8.22;90.95;99348.44;5072428;28;20510;-54
2020/12/21 11:17:59;;;;;;;12.10;5.72;;;;;;;8.26;90.79;99351.28;5069106;28;20056;-55
2020/12/21 11:20:46;;;;;;;16.00;5.20;;;;;;;8.27;90.83;99352.88;5085369;28;20083;-56
2020/12/21 11:23:32;;;;;;;284.63;37.53;;;;;;;8.29;90.67;99339.53;5088920;28;20131;-57
2020/12/21 11:26:19;;;;;;;21.85;6.15;;;;;;;8.31;90.80;99349.03;5065965;28;20139;-55
2020/12/21 11:29:06;;;;;;;10.13;3.90;;;;;;;8.35;90.59;99344.41;5065757;28;20529;-54
2020/12/21 11:31:36;;;;;;;15.00;4.43;;;;;;;8.36;90.55;99346.00;5059120;28;20068;-52
2020/12/21 11:34:06;;;;;;;48.05;7.03;;;;;;;8.38;90.82;99345.63;5048296;28;20079;-53
2020/12/21 11:36:34;;;;;;;9.10;5.18;;;;;;;8.39;90.99;99350.00;5047623;28;20052;-54
2020/12/21 11:39:00;;;;;;;51.47;9.38;;;;;;;8.40;90.72;99335.03;5075271;28;20551;-57
2020/12/21 11:41:31;;;;;;;14.27;5.88;;;;;;;8.40;90.78;99346.88;5078922;28;20036;-53
2020/12/21 11:43:57;;;;;;;18.35;7.28;;;;;;;8.41;90.94;99336.63;5081216;28;20044;-54
2020/12/21 11:46:35;;;;;;;28.27;7.13;;;;;;;8.43;90.90;99337.06;5073031;28;20592;-55
2020/12/21 11:49:02;;;;;;;40.65;8.52;;;;;;;8.44;90.87;99331.19;5071219;28;20063;-54
2020/12/21 11:51:28;;;;;;;20.00;6.38;;;;;;;8.47;90.96;99329.66;5052564;28;20469;-51
2020/12/21 11:53:55;;;;;;;18.60;5.55;;;;;;;8.47;90.84;99322.16;5080418;28;20129;-56
2020/12/21 11:56:21;;;;;;;16.38;5.97;;;;;;;8.48;90.92;99320.22;5085074;28;20063;-54
2020/12/21 11:58:48;;;;;;;17.75;6.13;;;;;;;8.50;90.80;99306.84;5072079;28;20106;-55
2020/12/21 12:01:19;;;;;;;21.45;7.40;;;;;;;8.49;91.10;99308.03;5073756;28;20138;-53
2020/12/21 12:03:45;;;;;;;33.60;7.90;;;;;;;8.52;90.81;99304.53;5079425;28;20127;-53
2020/12/21 12:06:12;;;;;;;13.00;5.22;;;;;;;8.54;90.94;99300.25;5071340;28;20037;-57
2020/12/21 12:08:38;;;;;;;11.80;5.22;;;;;;;8.57;90.97;99301.47;5082179;28;20076;-56
2020/12/21 12:11:06;;;;;;;56.05;8.27;;;;;;;8.61;90.91;99305.09;5093359;28;20058;-55
2020/12/21 12:13:33;;;;;;;20.23;5.68;;;;;;;8.63;90.95;99294.47;5080307;28;20036;-52
2020/12/21 12:15:59;;;;;;;36.95;9.55;;;;;;;8.65;90.84;99297.69;5076837;28;20040;-56
2020/12/21 12:18:26;;;;;;;23.23;7.20;;;;;;;8.68;90.82;99285.91;5057024;28;20064;-55
2020/12/21 12:20:52;;;;;;;24.30;7.65;;;;;;;8.70;90.82;99275.31;5074170;28;20405;-54
2020/12/21 12:23:21;;;;;;;13.32;5.90;;;;;;;8.71;91.05;99273.34;5086986;28;20043;-56
2020/12/21 12:25:47;;;;;;;12.68;6.78;;;;;;;8.73;91.20;99273.75;5078931;28;20106;-50
2020/12/21 12:28:13;;;;;;;23.20;9.10;;;;;;;8.75;91.06;99269.47;5091134;28;20109;-58
2020/12/21 12:30:42;;;;;;;32.20;10.07;;;;;;;8.78;90.94;99268.75;5083529;28;20044;-54
2020/12/21 12:33:08;;;;;;;23.30;8.32;;;;;;;8.80;90.98;99271.91;5072729;28;20028;-56
2020/12/21 12:35:34;;;;;;;21.33;7.28;;;;;;;8.82;90.96;99266.81;5076288;28;20123;-54
2020/12/21 12:38:00;;;;;;;18.13;7.85;;;;;;;8.82;90.95;99266.81;5074924;28;20098;-53
2020/12/21 12:40:27;;;;;;;12.80;7.00;;;;;;;8.84;90.87;99250.69;5075373;28;20158;-55
2020/12/21 12:42:53;;;;;;;12.05;5.43;;;;;;;8.86;90.97;99248.38;5070820;28;20391;-54
2020/12/21 12:45:21;;;;;;;12.60;4.72;;;;;;;8.88;90.86;99240.50;5093685;28;20097;-56
2020/12/21 12:47:48;;;;;;;11.95;4.47;;;;;;;8.91;90.92;99244.50;5056985;28;20037;-55
2020/12/21 12:50:14;;;;;;;21.13;5.97;;;;;;;8.93;91.02;99248.47;5017138;28;20080;-55
2020/12/21 12:52:41;;;;;;;13.57;5.72;;;;;;;8.96;90.89;99247.75;5034203;28;20102;-56
2020/12/21 12:55:07;;;;;;;17.17;6.95;;;;;;;8.98;90.95;99250.13;5040751;28;20068;-53